ORMM

Basrah International Airport

Basrah, Iraq
TAF ORMM 261000Z 2612/2712 12010G20KT 6000 NSC TEMPO 2614/2701 3000 BLDU SCT040 BKN100 TEMPO 2618/2703 3000 -TSSHRA BKN100 TEMPO 2618/2703 3000 -TSSHRA SCT030CB SCT040 OVC100
Issued Valid From Valid To
Apr-26 @ 10:00 UTC
(4 hours ago)
Apr-26 @ 12:00 UTC
(2 hours ago)
Apr-27 @ 12:00 UTC
(in 22 hours)
Apr-26 @ 12:00 to Apr-27 @ 12:00
TAF ORMM 261000Z 2612/2712 12010G20KT 6000 NSC
Wind Visibility Clouds
120° at 10 knots
 Gusting to 20 knots
6,003 meters
  • No significant clouds
Temporary Apr-26 @ 14:00 to Apr-27 @ 01:00
TEMPO 2614/2701 3000 BLDU SCT040 BKN100
Visibility Clouds Conditions
2,993 meters
  • Scattered at 4,000' AGL
  • Broken at 10,000' AGL
  • Blowing
  • Dust
Temporary Apr-26 @ 18:00 to Apr-27 @ 03:00
TEMPO 2618/2703 3000 -TSSHRA SCT030CB SCT040 OVC100
Visibility Clouds Conditions
2,993 meters
  • Broken at 10,000' AGL
  • Rain
  • Thunderstorm
TAF ORMM 261000Z 2612/2712 12010G20KT 6000 NSC TEMPO 2614/2701 3000 BLDU SCT040 BKN100 TEMPO 2618/2703 3000 -TSSHRA BKN100 TEMPO 2618/2703 3000 -TSSHRA SCT030CB SCT040 OVC100
Issued Apr-26 @ 10:00 UTC
(4 hours ago)
Valid From Apr-26 @ 12:00 UTC
(2 hours ago)
Valid To Apr-27 @ 12:00 UTC
(in 22 hours)
Apr-26 @ 12:00 - Apr-27 @ 12:00
Wind Visibility
120° at 10 knots
 Gusting to 20 knots
6,003 meters
Clouds
  • No significant clouds
Temporary Apr-26 @ 14:00 - Apr-27 @ 01:00
Clouds
  • Scattered at 4,000' AGL
  • Broken at 10,000' AGL
Conditions
  • Blowing
  • Dust
Temporary Apr-26 @ 18:00 - Apr-27 @ 03:00
Clouds
  • Broken at 10,000' AGL
Conditions
  • Rain
  • Thunderstorm